Terminal Aerodrome Forecast
Issued by NWS Duluth, MN

Home | Current Version | Previous Version | Text Only | Print | Product List | Glossary On
Versions: 1 2 3 4 5 6 7 8 9 10 11 12 13 14 15 16 17 18
000
FTUS43 KDLH 271138
TAFDLH
TAF
KDLH 271138Z 2712/2812 34005KT P6SM SKC
     FM272000 07004KT P6SM VCSH BKN070
     FM272300 06005KT P6SM VCTS BKN060CB
     FM280100 05004KT P6SM SCT120
     FM281000 00000KT 3SM BR SKC=

USA.gov is the U.S. government's official web portal to all federal, state and local government web resources and services.